createdAt,value
2019-06-25T00:00:54.833Z,101395.05
2019-06-25T00:01:59.796Z,101400.19
2019-06-25T00:03:05.657Z,101401.27
2019-06-25T00:04:10.606Z,101391.40
2019-06-25T00:05:20.086Z,101397.61
2019-06-25T00:06:25.461Z,101395.94
2019-06-25T00:07:31.023Z,101389.64
2019-06-25T00:08:36.249Z,101394.25
2019-06-25T00:09:41.935Z,101386.30
2019-06-25T00:10:46.938Z,101383.78
2019-06-25T00:11:52.563Z,101376.48
2019-06-25T00:12:57.628Z,101384.14
2019-06-25T00:14:03.315Z,101390.20
2019-06-25T00:15:08.535Z,101386.64
2019-06-25T00:16:14.379Z,101389.59
2019-06-25T00:17:19.612Z,101377.69
2019-06-25T00:18:25.103Z,101378.21
2019-06-25T00:19:30.093Z,101381.22
2019-06-25T00:20:35.852Z,101390.48
2019-06-25T00:21:40.807Z,101386.08
2019-06-25T00:22:46.304Z,101382.51
2019-06-25T00:23:51.661Z,101390.92
2019-06-25T00:24:57.147Z,101395.54
2019-06-25T00:26:02.089Z,101377.02
2019-06-25T00:27:07.728Z,101390.20
2019-06-25T00:28:12.640Z,101392.61
2019-06-25T00:29:18.285Z,101388.23
2019-06-25T00:30:23.378Z,101397.78
2019-06-25T00:31:29.006Z,101400.63
2019-06-25T00:32:34.300Z,101400.63
2019-06-25T00:33:39.810Z,101397.91
2019-06-25T00:34:44.967Z,101394.54
2019-06-25T00:35:50.627Z,101386.95
2019-06-25T00:36:55.626Z,101392.25
2019-06-25T00:38:01.204Z,101392.25
2019-06-25T00:39:07.141Z,101397.94
2019-06-25T00:40:13.137Z,101382.63
2019-06-25T00:41:18.148Z,101382.63
2019-06-25T00:42:24.051Z,101396.17
2019-06-25T00:43:28.965Z,101393.33
2019-06-25T00:44:34.763Z,101399.30
2019-06-25T00:45:39.951Z,101382.46
2019-06-25T00:46:45.451Z,101395.12
2019-06-25T00:47:50.496Z,101387.27
2019-06-25T00:48:55.996Z,101387.27
2019-06-25T00:50:00.978Z,101395.77
2019-06-25T00:51:06.520Z,101395.77
2019-06-25T00:52:11.724Z,101397.66
2019-06-25T00:53:17.286Z,101396.53
2019-06-25T00:54:22.380Z,101394.52
2019-06-25T00:55:27.961Z,101394.00
2019-06-25T00:56:33.035Z,101394.52
2019-06-25T00:57:38.709Z,101398.00
2019-06-25T00:58:43.619Z,101389.51
2019-06-25T00:59:49.143Z,101386.37
2019-06-25T01:00:54.186Z,101377.51
2019-06-25T01:02:06.780Z,101373.54
2019-06-25T01:03:20.327Z,101392.34
2019-06-25T01:04:25.924Z,101383.56
2019-06-25T01:05:31.193Z,101377.10
2019-06-25T01:06:37.055Z,101380.67
2019-06-25T01:07:42.037Z,101376.87
2019-06-25T01:08:47.563Z,101376.87
2019-06-25T01:09:52.735Z,101372.81
2019-06-25T01:10:58.356Z,101372.81
2019-06-25T01:12:03.281Z,101375.02
2019-06-25T01:13:08.851Z,101371.45
2019-06-25T01:14:13.857Z,101381.50
2019-06-25T01:15:20.036Z,101372.72
2019-06-25T01:16:25.035Z,101372.72
2019-06-25T01:17:31.162Z,101362.17
2019-06-25T01:18:36.417Z,101366.67
2019-06-25T01:19:41.999Z,101366.87
2019-06-25T01:20:47.235Z,101358.61
2019-06-25T01:21:52.840Z,101354.52
2019-06-25T01:22:57.775Z,101354.52
2019-06-25T01:24:03.284Z,101348.44
2019-06-25T01:25:08.424Z,101350.34
2019-06-25T01:26:14.089Z,101350.34
2019-06-25T01:27:19.156Z,101336.11
2019-06-25T01:28:24.769Z,101336.11
2019-06-25T01:29:29.704Z,101342.81
2019-06-25T01:30:35.278Z,101343.85
2019-06-25T01:31:40.193Z,101339.48
2019-06-25T01:32:45.743Z,101339.48
2019-06-25T01:33:50.922Z,101339.67
2019-06-25T01:34:56.516Z,101339.67
2019-06-25T01:36:01.800Z,101339.16
2019-06-25T01:37:07.497Z,101335.50
2019-06-25T01:38:12.784Z,101335.50
2019-06-25T01:39:18.305Z,101329.73
2019-06-25T01:40:23.309Z,101336.55
2019-06-25T01:41:29.032Z,101336.55
2019-06-25T01:42:34.038Z,101337.63
2019-06-25T01:43:39.837Z,101331.33
2019-06-25T01:44:44.827Z,101331.53
2019-06-25T01:45:50.435Z,101331.53
2019-06-25T01:46:55.683Z,101333.73
2019-06-25T01:48:01.297Z,101337.21
2019-06-25T01:49:06.222Z,101337.21
2019-06-25T01:50:13.207Z,101331.61
2019-06-25T01:51:18.096Z,101325.23
2019-06-25T01:52:23.726Z,101325.23
2019-06-25T01:53:29.186Z,101323.03
2019-06-25T01:54:34.741Z,101328.28
2019-06-25T01:55:40.041Z,101329.24
2019-06-25T01:56:45.602Z,101330.25
2019-06-25T01:57:50.525Z,101332.17
2019-06-25T01:58:56.053Z,101332.17
2019-06-25T02:00:01.085Z,101327.23
2019-06-25T02:01:06.683Z,101327.23
2019-06-25T02:02:11.929Z,101320.45
2019-06-25T02:03:17.566Z,101326.59
2019-06-25T02:04:22.495Z,101326.59
2019-06-25T02:05:28.122Z,101323.59
2019-06-25T02:06:33.112Z,101325.47
2019-06-25T02:07:38.761Z,101321.58
2019-06-25T02:08:43.769Z,101319.94
2019-06-25T02:09:49.646Z,101319.94
2019-06-25T02:10:54.554Z,101318.57
2019-06-25T02:12:00.060Z,101313.00
2019-06-25T02:13:05.167Z,101313.52
2019-06-25T02:14:10.980Z,101313.52
2019-06-25T02:15:16.309Z,101309.16
2019-06-25T02:16:21.939Z,101304.98
2019-06-25T02:17:26.942Z,101305.79
2019-06-25T02:18:32.564Z,101308.22
2019-06-25T02:19:37.556Z,101307.91
2019-06-25T02:20:43.170Z,101305.61
2019-06-25T02:21:48.295Z,101305.61
2019-06-25T02:22:53.963Z,101316.18
2019-06-25T02:23:59.299Z,101316.18
2019-06-25T02:25:04.958Z,101308.45
2019-06-25T02:26:09.913Z,101305.55
2019-06-25T02:27:15.748Z,101302.50
2019-06-25T02:28:20.687Z,101302.50
2019-06-25T02:29:26.209Z,101308.88
2019-06-25T02:30:31.289Z,101307.42
2019-06-25T02:31:37.113Z,101307.42
2019-06-25T02:32:42.161Z,101307.42
2019-06-25T02:33:47.799Z,101305.42
2019-06-25T02:34:52.994Z,101300.73
2019-06-25T02:35:58.906Z,101306.17
2019-06-25T02:37:03.815Z,101309.41
2019-06-25T02:38:09.409Z,101309.41
2019-06-25T02:39:14.728Z,101304.31
2019-06-25T02:40:20.617Z,101311.20
2019-06-25T02:41:25.847Z,101309.84
2019-06-25T02:42:33.528Z,101314.67
2019-06-25T02:43:42.610Z,101314.67
2019-06-25T02:44:45.477Z,101315.95
2019-06-25T02:45:50.559Z,101315.95
2019-06-25T02:46:56.432Z,101305.07
2019-06-25T02:48:01.343Z,101318.86
2019-06-25T02:49:07.177Z,101311.45
2019-06-25T02:50:12.809Z,101311.45
2019-06-25T02:51:18.418Z,101309.77
2019-06-25T02:52:23.472Z,101303.59
2019-06-25T02:53:29.006Z,101309.45
2019-06-25T02:54:34.023Z,101305.70
2019-06-25T02:55:39.556Z,101305.70
2019-06-25T02:56:44.898Z,101317.19
2019-06-25T02:57:50.417Z,101317.19
2019-06-25T02:58:55.420Z,101311.05
2019-06-25T03:00:01.065Z,101315.42
2019-06-25T03:01:22.529Z,101315.42
2019-06-25T03:02:13.307Z,101317.84
2019-06-25T03:03:18.627Z,101319.09
2019-06-25T03:04:24.225Z,101319.09
2019-06-25T03:05:29.282Z,101321.00
2019-06-25T03:06:34.913Z,101321.00
2019-06-25T03:07:39.988Z,101317.11
2019-06-25T03:08:45.723Z,101319.73
2019-06-25T03:09:50.711Z,101321.09
2019-06-25T03:10:56.375Z,101321.09
2019-06-25T03:12:01.376Z,101322.14
2019-06-25T03:13:06.877Z,101322.14
2019-06-25T03:14:12.088Z,101318.25
2019-06-25T03:15:17.668Z,101317.61
2019-06-25T03:16:22.862Z,101314.37
2019-06-25T03:17:28.432Z,101320.55
2019-06-25T03:18:33.520Z,101316.99
2019-06-25T03:19:39.651Z,101311.04
2019-06-25T03:20:45.910Z,101314.70
2019-06-25T03:21:51.788Z,101312.30
2019-06-25T03:22:56.798Z,101312.30
2019-06-25T03:24:02.489Z,101313.95
2019-06-25T03:25:08.141Z,101315.31
2019-06-25T03:26:13.777Z,101315.31
2019-06-25T03:27:18.747Z,101320.47
2019-06-25T03:28:24.330Z,101322.02
2019-06-25T03:29:33.464Z,101325.26
2019-06-25T03:30:37.263Z,101321.17
2019-06-25T03:32:04.490Z,101322.21
2019-06-25T03:32:52.068Z,101316.16
2019-06-25T03:33:57.088Z,101313.54
2019-06-25T03:35:02.592Z,101319.40
2019-06-25T03:36:07.674Z,101323.48
2019-06-25T03:37:13.487Z,101320.14
2019-06-25T03:38:18.388Z,101320.14
2019-06-25T03:39:24.329Z,101322.02
2019-06-25T03:40:29.262Z,101320.34
2019-06-25T03:41:34.994Z,101317.62
2019-06-25T03:42:40.148Z,101317.62
2019-06-25T03:43:45.755Z,101315.97
2019-06-25T03:44:51.036Z,101318.36
2019-06-25T03:45:57.175Z,101317.84
2019-06-25T03:47:02.647Z,101322.44
2019-06-25T03:48:08.303Z,101325.68
2019-06-25T03:49:13.489Z,101323.48
2019-06-25T03:50:19.512Z,101326.72
2019-06-25T03:51:24.808Z,101327.56
2019-06-25T03:52:30.524Z,101338.77
2019-06-25T03:53:35.528Z,101331.64
2019-06-25T03:54:41.085Z,101331.64
2019-06-25T03:55:46.113Z,101327.56
2019-06-25T03:56:51.676Z,101327.56
2019-06-25T03:57:56.675Z,101324.84
2019-06-25T03:59:02.618Z,101322.13
2019-06-25T04:00:08.285Z,101323.48
2019-06-25T04:01:14.161Z,101323.48
2019-06-25T04:02:19.218Z,101324.84
2019-06-25T04:03:24.879Z,101319.72
2019-06-25T04:04:29.916Z,101315.32
2019-06-25T04:05:35.673Z,101321.18
2019-06-25T04:06:41.037Z,101318.46
2019-06-25T04:07:46.664Z,101317.94
2019-06-25T04:08:51.649Z,101323.19
2019-06-25T04:09:57.159Z,101321.92
2019-06-25T04:11:02.292Z,101326.94
2019-06-25T04:12:07.947Z,101320.14
2019-06-25T04:13:12.978Z,101322.34
2019-06-25T04:14:18.767Z,101310.52
2019-06-25T04:15:24.015Z,101315.31
2019-06-25T04:16:30.088Z,101313.44
2019-06-25T04:17:35.111Z,101309.78
2019-06-25T04:18:45.386Z,101309.78
2019-06-25T04:19:49.301Z,101310.81
2019-06-25T04:20:55.042Z,101310.81
2019-06-25T04:22:00.267Z,101317.09
2019-06-25T04:23:05.977Z,101316.05
2019-06-25T04:24:11.339Z,101316.05
2019-06-25T04:25:17.478Z,101317.94
2019-06-25T04:26:22.512Z,101310.61
2019-06-25T04:27:28.165Z,101310.61
2019-06-25T04:28:33.214Z,101297.63
2019-06-25T04:29:38.817Z,101310.39
2019-06-25T04:30:46.834Z,101290.42
2019-06-25T04:31:51.309Z,101303.30
2019-06-25T04:32:56.245Z,101305.17
2019-06-25T04:34:01.874Z,101305.17
2019-06-25T04:35:07.396Z,101289.19
2019-06-25T04:36:13.357Z,101289.19
2019-06-25T04:37:18.551Z,101293.46
2019-06-25T04:38:24.159Z,101293.46
2019-06-25T04:39:29.233Z,101304.02
2019-06-25T04:40:34.789Z,101301.29
2019-06-25T04:41:39.825Z,101301.29
2019-06-25T04:42:45.522Z,101298.89
2019-06-25T04:43:50.536Z,101298.16
2019-06-25T04:44:56.097Z,101313.62
2019-06-25T04:46:01.084Z,101308.61
2019-06-25T04:47:07.085Z,101312.39
2019-06-25T04:48:12.097Z,101312.39
2019-06-25T04:49:18.025Z,101318.03
2019-06-25T04:50:23.150Z,101320.84
2019-06-25T04:51:28.952Z,101324.14
2019-06-25T04:52:33.983Z,101322.97
2019-06-25T04:53:39.709Z,101326.52
2019-06-25T04:54:44.651Z,101325.05
2019-06-25T04:55:50.228Z,101321.16
2019-06-25T04:56:55.319Z,101321.16
2019-06-25T04:58:01.201Z,101312.38
2019-06-25T04:59:06.764Z,101323.45
2019-06-25T05:00:12.731Z,101325.14
2019-06-25T05:01:17.842Z,101332.77
2019-06-25T05:02:23.577Z,101326.39
2019-06-25T05:03:28.517Z,101341.44
2019-06-25T05:04:34.138Z,101327.41
2019-06-25T05:05:39.177Z,101335.56
2019-06-25T05:06:44.816Z,101343.62
2019-06-25T05:07:50.413Z,101343.62
2019-06-25T05:08:56.107Z,101341.19
2019-06-25T05:10:01.636Z,101348.20
2019-06-25T05:11:07.345Z,101347.25
2019-06-25T05:12:12.316Z,101351.64
2019-06-25T05:13:18.368Z,101351.64
2019-06-25T05:14:25.017Z,101347.55
2019-06-25T05:15:32.281Z,101342.75
2019-06-25T05:16:38.424Z,101347.73
2019-06-25T05:17:44.208Z,101347.73
2019-06-25T05:18:49.230Z,101348.66
2019-06-25T05:19:57.535Z,101347.83
2019-06-25T05:21:01.803Z,101345.68
2019-06-25T05:22:07.707Z,101345.68
2019-06-25T05:23:13.486Z,101345.65
2019-06-25T05:24:19.370Z,101345.65
2019-06-25T05:25:24.696Z,101345.77
2019-06-25T05:26:30.399Z,101334.46
2019-06-25T05:27:35.904Z,101343.65
2019-06-25T05:28:41.859Z,101342.37
2019-06-25T05:29:47.064Z,101339.44
2019-06-25T05:30:52.961Z,101333.99
2019-06-25T05:31:58.491Z,101339.53
2019-06-25T05:33:06.083Z,101328.74
2019-06-25T05:34:11.416Z,101341.09
2019-06-25T05:35:17.679Z,101341.09
2019-06-25T05:36:53.599Z,101339.05
2019-06-25T05:37:58.610Z,101339.05
2019-06-25T05:39:05.588Z,101331.80
2019-06-25T05:40:11.930Z,101331.28
2019-06-25T05:41:17.581Z,101331.28
2019-06-25T05:42:22.804Z,101328.87
2019-06-25T05:43:28.573Z,101333.16
2019-06-25T05:44:33.762Z,101323.94
2019-06-25T05:45:39.291Z,101316.72
2019-06-25T05:46:44.465Z,101329.39
2019-06-25T05:47:50.436Z,101334.00
2019-06-25T05:48:55.708Z,101324.18
2019-06-25T05:50:01.407Z,101334.76
2019-06-25T05:51:06.501Z,101334.76
2019-06-25T05:52:12.612Z,101335.05
2019-06-25T05:53:17.621Z,101333.16
2019-06-25T05:54:23.189Z,101333.16
2019-06-25T05:55:28.263Z,101328.87
2019-06-25T05:56:33.981Z,101330.75
2019-06-25T05:57:39.438Z,101328.78
2019-06-25T05:58:45.371Z,101341.73
2019-06-25T05:59:50.448Z,101341.73
2019-06-25T06:00:56.217Z,101343.42
2019-06-25T06:02:01.263Z,101343.42
2019-06-25T06:03:19.295Z,101348.98
2019-06-25T06:04:13.721Z,101343.33
2019-06-25T06:05:19.463Z,101346.22
2019-06-25T06:06:24.448Z,101342.53
2019-06-25T06:07:30.065Z,101347.09
2019-06-25T06:08:35.748Z,101347.30
2019-06-25T06:09:41.400Z,101350.50
2019-06-25T06:10:46.571Z,101346.36
2019-06-25T06:11:52.542Z,101341.05
2019-06-25T06:12:57.612Z,101346.98
2019-06-25T06:14:03.203Z,101347.38
2019-06-25T06:15:09.234Z,101343.47
2019-06-25T06:16:14.889Z,101341.34
2019-06-25T06:17:19.896Z,101346.46
2019-06-25T06:18:37.085Z,101349.06
2019-06-25T06:19:42.207Z,101344.23
2019-06-25T06:20:48.238Z,101341.05
2019-06-25T06:21:53.265Z,101339.77
2019-06-25T06:22:58.929Z,101338.47
2019-06-25T06:24:04.115Z,101338.02
2019-06-25T06:25:10.171Z,101334.56
2019-06-25T06:26:18.504Z,101336.52
2019-06-25T06:27:22.689Z,101338.48
2019-06-25T06:28:27.701Z,101331.20
2019-06-25T06:29:33.724Z,101330.16
2019-06-25T06:30:38.846Z,101329.70
2019-06-25T06:31:44.597Z,101330.09
2019-06-25T06:32:49.699Z,101328.06
2019-06-25T06:33:55.457Z,101334.81
2019-06-25T06:35:00.661Z,101333.59
2019-06-25T06:36:06.813Z,101332.68
2019-06-25T06:37:12.091Z,101329.63
2019-06-25T06:38:17.722Z,101330.35
2019-06-25T06:39:23.414Z,101330.83
2019-06-25T06:40:29.000Z,101332.92
2019-06-25T06:41:34.045Z,101332.56
2019-06-25T06:42:40.023Z,101332.77
2019-06-25T06:43:45.037Z,101336.50
2019-06-25T06:44:51.117Z,101332.31
2019-06-25T06:45:56.184Z,101332.50
2019-06-25T06:47:02.893Z,101332.22
2019-06-25T06:48:07.991Z,101336.83
2019-06-25T06:49:13.658Z,101327.69
2019-06-25T06:50:18.913Z,101329.27
2019-06-25T06:51:25.565Z,101328.85
2019-06-25T06:52:30.576Z,101326.02
2019-06-25T06:53:36.465Z,101332.17
2019-06-25T06:54:41.590Z,101330.58
2019-06-25T06:55:47.194Z,101330.33
2019-06-25T06:56:52.284Z,101333.65
2019-06-25T06:57:58.128Z,101326.65
2019-06-25T06:59:03.315Z,101333.36
2019-06-25T07:00:10.155Z,101324.09
2019-06-25T07:01:15.513Z,101340.56
2019-06-25T07:02:21.204Z,101331.83
2019-06-25T07:03:26.384Z,101320.56
2019-06-25T07:04:32.343Z,101321.63
2019-06-25T07:05:37.413Z,101319.45
2019-06-25T07:06:43.098Z,101319.67
2019-06-25T07:07:48.188Z,101315.04
2019-06-25T07:08:54.375Z,101319.20
2019-06-25T07:09:59.999Z,101320.88
2019-06-25T07:11:05.704Z,101322.25
2019-06-25T07:12:10.784Z,101321.16
2019-06-25T07:13:16.366Z,101321.46
2019-06-25T07:14:21.413Z,101315.98
2019-06-25T07:15:27.058Z,101315.52
2019-06-25T07:16:32.388Z,101318.88
2019-06-25T07:17:38.035Z,101308.98
2019-06-25T07:18:43.092Z,101313.92
2019-06-25T07:19:49.031Z,101322.14
2019-06-25T07:20:54.055Z,101315.83
2019-06-25T07:22:00.359Z,101309.82
2019-06-25T07:23:05.434Z,101310.66
2019-06-25T07:24:11.057Z,101315.04
2019-06-25T07:25:16.373Z,101319.45
2019-06-25T07:26:22.002Z,101321.13
2019-06-25T07:27:29.590Z,101318.45
2019-06-25T07:28:34.492Z,101315.45
2019-06-25T07:29:39.602Z,101315.23
2019-06-25T07:30:45.252Z,101310.07
2019-06-25T07:31:50.350Z,101315.29
2019-06-25T07:32:55.905Z,101319.45
2019-06-25T07:34:09.382Z,101320.91
2019-06-25T07:35:08.531Z,101325.54
2019-06-25T07:36:13.704Z,101325.28
2019-06-25T07:37:19.626Z,101319.59
2019-06-25T07:38:24.655Z,101311.43
2019-06-25T07:39:30.226Z,101318.41
2019-06-25T07:40:35.419Z,101320.19
2019-06-25T07:41:41.560Z,101322.80
2019-06-25T07:42:46.676Z,101321.87
2019-06-25T07:43:52.312Z,101322.59
2019-06-25T07:44:57.292Z,101324.90
2019-06-25T07:46:03.150Z,101320.97
2019-06-25T07:47:08.263Z,101322.69
2019-06-25T07:48:14.173Z,101319.47
2019-06-25T07:49:19.277Z,101322.25
2019-06-25T07:50:25.184Z,101322.00
2019-06-25T07:51:30.266Z,101315.75
2019-06-25T07:54:38.782Z,101328.71
2019-06-25T07:56:36.124Z,101319.95
2019-06-25T07:57:49.550Z,101326.81
2019-06-25T07:59:13.610Z,101332.02
2019-06-25T08:02:48.747Z,101318.84
2019-06-25T08:04:25.034Z,101329.55
2019-06-25T08:06:18.754Z,101321.41
2019-06-25T08:07:42.909Z,101319.34
2019-06-25T08:08:48.745Z,101325.32
2019-06-25T08:09:53.779Z,101317.19
2019-06-25T08:10:59.371Z,101321.42
2019-06-25T08:13:48.946Z,101322.69
2019-06-25T08:15:13.700Z,101320.33
2019-06-25T08:16:18.820Z,101325.82
2019-06-25T08:17:43.977Z,101325.33
2019-06-25T08:19:08.080Z,101317.41
2019-06-25T08:20:52.885Z,101326.81
2019-06-25T08:22:16.919Z,101322.20
2019-06-25T08:23:41.065Z,101325.75
2019-06-25T08:24:47.263Z,101323.84
2019-06-25T08:26:11.279Z,101321.11
2019-06-25T08:27:16.504Z,101321.11
2019-06-25T08:28:40.961Z,101315.34
2019-06-25T08:30:05.132Z,101319.73
2019-06-25T08:31:10.809Z,101315.34
2019-06-25T08:33:46.701Z,101316.91
2019-06-25T08:35:10.824Z,101317.41
2019-06-25T08:36:35.554Z,101321.48
2019-06-25T08:38:20.135Z,101316.48
2019-06-25T08:39:25.476Z,101312.02
2019-06-25T08:40:31.371Z,101321.50
2019-06-25T08:42:15.991Z,101319.25
2019-06-25T08:43:21.016Z,101317.30
2019-06-25T08:44:45.030Z,101321.11
2019-06-25T08:46:28.544Z,101314.26
2019-06-25T08:47:53.319Z,101315.63
2019-06-25T08:49:37.892Z,101314.26
2019-06-25T08:53:11.640Z,101313.38
2019-06-25T08:56:40.812Z,101312.69
2019-06-25T08:57:46.495Z,101317.25
2019-06-25T08:58:52.059Z,101311.42
2019-06-25T08:59:57.301Z,101317.44
2019-06-25T09:01:22.320Z,101316.06
2019-06-25T09:02:27.346Z,101316.06
2019-06-25T09:03:32.967Z,101319.64
2019-06-25T09:04:59.526Z,101315.53
2019-06-25T09:06:23.224Z,101316.95
2019-06-25T09:09:37.087Z,101318.47
2019-06-25T09:10:42.973Z,101310.52
2019-06-25T09:12:27.995Z,101313.56
2019-06-25T09:13:33.270Z,101317.45
2019-06-25T09:14:39.151Z,101305.95
2019-06-25T09:15:44.227Z,101310.59
2019-06-25T09:17:08.749Z,101311.44
2019-06-25T09:18:13.807Z,101312.54
2019-06-25T09:19:49.838Z,101312.01
2019-06-25T09:22:48.517Z,101307.59
2019-06-25T09:24:12.752Z,101315.55
2019-06-25T09:25:36.926Z,101319.88
2019-06-25T09:27:00.979Z,101320.19
2019-06-25T09:28:06.283Z,101321.83
2019-06-25T09:29:11.798Z,101312.80
2019-06-25T09:30:56.408Z,101312.23
2019-06-25T09:32:20.905Z,101307.59
2019-06-25T09:33:26.561Z,101312.59
2019-06-25T09:36:56.042Z,101313.54
2019-06-25T09:38:20.411Z,101315.19
2019-06-25T09:39:45.145Z,101318.77
2019-06-25T09:40:48.666Z,101310.23
2019-06-25T09:41:52.791Z,101320.17
2019-06-25T09:43:15.313Z,101318.58
2019-06-25T09:44:18.866Z,101317.78
2019-06-25T09:46:11.575Z,101317.78
2019-06-25T09:47:17.418Z,101324.71
2019-06-25T09:50:46.886Z,101323.61
2019-06-25T09:54:21.212Z,101317.29
2019-06-25T09:55:45.407Z,101317.02
2019-06-25T09:57:10.468Z,101322.50
2019-06-25T09:58:15.541Z,101321.66
2019-06-25T09:59:40.279Z,101318.66
2019-06-25T10:01:41.137Z,101320.33
2019-06-25T10:02:54.214Z,101318.73
2019-06-25T10:04:18.939Z,101319.84
2019-06-25T10:05:31.427Z,101316.56
2019-06-25T10:07:09.298Z,101317.98
2019-06-25T10:08:14.332Z,101315.84
2019-06-25T10:09:39.109Z,101318.36
2019-06-25T10:10:44.861Z,101320.38
2019-06-25T10:12:09.949Z,101323.47
2019-06-25T10:13:14.925Z,101325.14
2019-06-25T10:14:20.523Z,101321.06
2019-06-25T10:15:44.686Z,101321.17
2019-06-25T10:17:08.665Z,101323.50
2019-06-25T10:18:13.743Z,101321.40
2019-06-25T10:19:19.700Z,101320.13
2019-06-25T10:20:43.782Z,101324.59
2019-06-25T10:22:08.291Z,101319.37
2019-06-25T10:23:13.986Z,101325.20
2019-06-25T10:24:38.176Z,101329.61
2019-06-25T10:25:44.195Z,101326.03
2019-06-25T10:27:08.311Z,101314.22
2019-06-25T10:28:28.455Z,101320.81
2019-06-25T10:29:42.476Z,101326.56
2019-06-25T10:31:06.486Z,101326.87
2019-06-25T10:32:11.975Z,101322.18
2019-06-25T10:33:36.013Z,101324.66
2019-06-25T10:37:28.529Z,101317.80
2019-06-25T10:38:34.209Z,101310.09
2019-06-25T10:39:39.225Z,101315.05
2019-06-25T10:40:44.756Z,101312.61
2019-06-25T10:42:09.039Z,101311.54
2019-06-25T10:43:33.058Z,101307.16
2019-06-25T10:46:27.632Z,101309.94
2019-06-25T10:47:33.553Z,101306.66
2019-06-25T10:48:38.706Z,101302.53
2019-06-25T10:49:44.246Z,101304.52
2019-06-25T10:50:49.205Z,101312.75
2019-06-25T10:52:14.289Z,101307.83
2019-06-25T10:53:58.007Z,101301.27
2019-06-25T10:55:03.468Z,101304.88
2019-06-25T10:56:09.199Z,101301.63
2019-06-25T10:58:57.490Z,101306.98
2019-06-25T11:00:03.434Z,101304.58
2019-06-25T11:01:08.385Z,101302.09
2019-06-25T11:02:14.208Z,101307.59
2019-06-25T11:05:08.438Z,101307.11
2019-06-25T11:06:14.410Z,101303.00
2019-06-25T11:07:39.242Z,101302.73
2019-06-25T11:09:44.663Z,101303.86
2019-06-25T11:11:29.610Z,101300.34
2019-06-25T11:12:53.817Z,101298.73
2019-06-25T11:14:37.257Z,101295.98
2019-06-25T11:15:42.564Z,101295.15
2019-06-25T11:17:06.949Z,101299.30
2019-06-25T11:21:55.405Z,101302.62
2019-06-25T11:23:01.043Z,101299.75
2019-06-25T11:24:45.663Z,101298.97
2019-06-25T11:26:22.867Z,101292.44
2019-06-25T11:27:37.135Z,101295.83
2019-06-25T11:28:42.765Z,101302.49
2019-06-25T11:29:48.332Z,101293.41
2019-06-25T11:31:12.523Z,101290.96
2019-06-25T11:32:37.778Z,101292.09
2019-06-25T11:34:22.762Z,101293.55
2019-06-25T11:35:47.298Z,101290.86
2019-06-25T11:37:11.955Z,101296.16
2019-06-25T11:40:00.402Z,101285.57
2019-06-25T11:41:05.543Z,101294.70
2019-06-25T11:44:12.777Z,101284.09
2019-06-25T11:45:36.992Z,101288.59
2019-06-25T11:47:20.707Z,101294.46
2019-06-25T11:48:26.320Z,101299.14
2019-06-25T11:49:31.343Z,101291.17
2019-06-25T11:50:37.358Z,101288.42
2019-06-25T11:52:01.681Z,101283.16
2019-06-25T11:53:25.940Z,101295.24
2019-06-25T11:56:15.016Z,101294.44
2019-06-25T11:57:39.009Z,101288.94
2019-06-25T11:58:44.131Z,101294.70
2019-06-25T12:00:49.899Z,101290.58
2019-06-25T12:01:55.193Z,101288.42
2019-06-25T12:03:01.909Z,101282.66
2019-06-25T12:04:26.006Z,101283.26
2019-06-25T12:05:31.558Z,101287.64
2019-06-25T12:06:56.230Z,101280.77
2019-06-25T12:08:01.563Z,101283.81
2019-06-25T12:09:47.024Z,101279.69
2019-06-25T12:11:11.168Z,101286.27
2019-06-25T12:12:35.460Z,101276.10
2019-06-25T12:13:40.485Z,101277.77
2019-06-25T12:14:46.105Z,101269.54
2019-06-25T12:15:51.022Z,101275.06
2019-06-25T12:16:56.961Z,101273.98
2019-06-25T12:18:02.297Z,101279.80
2019-06-25T12:19:08.167Z,101265.52
2019-06-25T12:20:52.757Z,101267.50
2019-06-25T12:21:57.784Z,101267.22
2019-06-25T12:23:03.364Z,101266.44
2019-06-25T12:24:27.490Z,101269.99
2019-06-25T12:25:52.346Z,101273.31
2019-06-25T12:26:57.444Z,101275.79
2019-06-25T12:28:03.211Z,101264.53
2019-06-25T12:29:08.178Z,101260.67
2019-06-25T12:30:52.846Z,101264.02
2019-06-25T12:32:17.223Z,101262.90
2019-06-25T12:34:46.891Z,101267.91
2019-06-25T12:36:11.659Z,101266.80
2019-06-25T12:37:16.700Z,101265.16
2019-06-25T12:38:22.201Z,101265.96
2019-06-25T12:39:27.205Z,101263.78
2019-06-25T12:40:52.003Z,101265.96
2019-06-25T12:42:16.261Z,101265.72
2019-06-25T12:43:40.271Z,101262.14
2019-06-25T12:45:04.327Z,101267.95
2019-06-25T12:46:28.380Z,101263.87
2019-06-25T12:47:33.754Z,101271.37
2019-06-25T12:48:39.287Z,101266.23
2019-06-25T12:50:03.489Z,101262.96
2019-06-25T12:51:28.581Z,101267.95
2019-06-25T12:52:53.043Z,101263.88
2019-06-25T12:53:58.635Z,101262.81
2019-06-25T12:55:03.831Z,101265.58
2019-06-25T12:56:28.546Z,101264.20
2019-06-25T12:57:33.568Z,101263.95
2019-06-25T12:58:39.160Z,101261.53
2019-06-25T12:59:44.242Z,101266.52
2019-06-25T13:01:08.938Z,101264.06
2019-06-25T13:03:38.442Z,101270.73
2019-06-25T13:04:43.544Z,101274.08
2019-06-25T13:06:08.290Z,101269.41
2019-06-25T13:08:58.209Z,101264.78
2019-06-25T13:12:06.960Z,101266.72
2019-06-25T13:13:30.984Z,101267.25
2019-06-25T13:14:55.148Z,101265.62
2019-06-25T13:16:19.220Z,101261.20
2019-06-25T13:17:24.243Z,101259.56
2019-06-25T13:18:48.941Z,101265.62
2019-06-25T13:20:12.976Z,101260.95
2019-06-25T13:21:56.388Z,101259.86
2019-06-25T13:23:20.438Z,101263.78
2019-06-25T13:24:44.679Z,101259.91
2019-06-25T13:25:50.304Z,101261.28
2019-06-25T13:27:34.913Z,101269.05
2019-06-25T13:28:40.085Z,101263.53
2019-06-25T13:29:45.789Z,101258.28
2019-06-25T13:32:53.029Z,101254.72
2019-06-25T13:34:36.470Z,101253.89
2019-06-25T13:36:00.635Z,101254.47
2019-06-25T13:37:06.289Z,101250.63
2019-06-25T13:38:11.335Z,101255.05
2019-06-25T13:39:16.992Z,101253.13
2019-06-25T13:40:22.438Z,101256.17
2019-06-25T13:41:28.073Z,101250.66
2019-06-25T13:42:33.136Z,101241.30
2019-06-25T13:43:38.737Z,101246.27
2019-06-25T13:44:43.790Z,101252.33
2019-06-25T13:45:50.098Z,101244.63
2019-06-25T13:46:55.803Z,101240.52
2019-06-25T13:48:11.368Z,101246.31
2019-06-25T13:49:08.162Z,101242.45
2019-06-25T13:50:15.367Z,101250.73
2019-06-25T13:51:20.611Z,101247.42
2019-06-25T13:52:26.359Z,101248.83
2019-06-25T13:53:31.645Z,101252.42
2019-06-25T13:54:39.823Z,101249.95
2019-06-25T13:55:44.092Z,101244.97
2019-06-25T13:56:49.787Z,101245.80
2019-06-25T13:57:54.841Z,101243.86
2019-06-25T13:59:00.473Z,101241.66
2019-06-25T14:00:06.857Z,101236.73
2019-06-25T14:01:12.431Z,101239.21
2019-06-25T14:02:17.529Z,101238.39
2019-06-25T14:03:23.196Z,101237.53
2019-06-25T14:04:28.255Z,101237.27